sensor_id;sensor_type;location;lat;lon;timestamp;pressure;altitude;pressure_sealevel;temperature;humidity
11268;BME280;49397;47.474;9.416;2023-07-13T00:01:03;95517.91;;;17.10;87.14
11268;BME280;49397;47.474;9.416;2023-07-13T00:03:29;95530.84;;;17.04;87.45
11268;BME280;49397;47.474;9.416;2023-07-13T00:06:01;95536.47;;;16.83;89.37
11268;BME280;49397;47.474;9.416;2023-07-13T00:08:30;95536.47;;;16.83;87.19
11268;BME280;49397;47.474;9.416;2023-07-13T00:10:57;95533.47;;;17.01;86.27
11268;BME280;49397;47.474;9.416;2023-07-13T00:13:23;95538.41;;;16.99;86.86
11268;BME280;49397;47.474;9.416;2023-07-13T00:15:48;95538.53;;;17.02;87.22
11268;BME280;49397;47.474;9.416;2023-07-13T00:18:14;95536.72;;;17.06;87.13
11268;BME280;49397;47.474;9.416;2023-07-13T00:20:39;95537.72;;;17.02;87.79
11268;BME280;49397;47.474;9.416;2023-07-13T00:23:07;95534.34;;;17.05;87.58
11268;BME280;49397;47.474;9.416;2023-07-13T00:25:32;95541.84;;;17.11;85.22
11268;BME280;49397;47.474;9.416;2023-07-13T00:27:57;95547.94;;;17.08;85.63
11268;BME280;49397;47.474;9.416;2023-07-13T00:30:23;95547.16;;;17.08;86.35
11268;BME280;49397;47.474;9.416;2023-07-13T00:32:49;95545.72;;;16.98;87.63
11268;BME280;49397;47.474;9.416;2023-07-13T00:35:15;95546.97;;;17.01;87.75
11268;BME280;49397;47.474;9.416;2023-07-13T00:37:41;95539.75;;;17.05;87.20
11268;BME280;49397;47.474;9.416;2023-07-13T00:40:07;95543.44;;;17.12;85.88
11268;BME280;49397;47.474;9.416;2023-07-13T00:42:33;95545.88;;;17.17;86.52
11268;BME280;49397;47.474;9.416;2023-07-13T00:47:37;95542.84;;;17.19;85.85
11268;BME280;49397;47.474;9.416;2023-07-13T00:50:03;95534.94;;;17.26;87.11
11268;BME280;49397;47.474;9.416;2023-07-13T00:52:31;95530.97;;;17.23;85.83
11268;BME280;49397;47.474;9.416;2023-07-13T00:54:58;95529.44;;;17.22;83.15
11268;BME280;49397;47.474;9.416;2023-07-13T00:57:24;95522.81;;;17.20;85.14
11268;BME280;49397;47.474;9.416;2023-07-13T00:59:58;95523.13;;;17.18;84.32
11268;BME280;49397;47.474;9.416;2023-07-13T01:02:32;95527.94;;;17.25;85.93
11268;BME280;49397;47.474;9.416;2023-07-13T01:04:58;95524.34;;;17.21;84.51
11268;BME280;49397;47.474;9.416;2023-07-13T01:07:23;95522.72;;;17.16;85.03
11268;BME280;49397;47.474;9.416;2023-07-13T01:09:49;95529.22;;;17.15;86.25
11268;BME280;49397;47.474;9.416;2023-07-13T01:12:14;95525.94;;;17.22;85.19
11268;BME280;49397;47.474;9.416;2023-07-13T01:14:40;95528.28;;;17.23;84.12
11268;BME280;49397;47.474;9.416;2023-07-13T01:17:09;95535.94;;;17.21;84.94
11268;BME280;49397;47.474;9.416;2023-07-13T01:19:41;95532.47;;;17.21;84.81
11268;BME280;49397;47.474;9.416;2023-07-13T01:22:13;95533.94;;;17.18;85.28
11268;BME280;49397;47.474;9.416;2023-07-13T01:24:41;95534.72;;;17.19;85.88
11268;BME280;49397;47.474;9.416;2023-07-13T01:27:08;95539.34;;;17.18;85.45
11268;BME280;49397;47.474;9.416;2023-07-13T01:29:35;95530.56;;;17.21;86.53
11268;BME280;49397;47.474;9.416;2023-07-13T01:32:08;95529.44;;;17.22;85.64
11268;BME280;49397;47.474;9.416;2023-07-13T01:34:34;95528.75;;;17.25;84.59
11268;BME280;49397;47.474;9.416;2023-07-13T01:36:59;95522.38;;;17.33;84.83
11268;BME280;49397;47.474;9.416;2023-07-13T01:39:24;95520.72;;;17.29;83.59
11268;BME280;49397;47.474;9.416;2023-07-13T01:41:50;95526.81;;;17.26;82.55
11268;BME280;49397;47.474;9.416;2023-07-13T01:44:15;95520.28;;;17.27;83.44
11268;BME280;49397;47.474;9.416;2023-07-13T01:46:40;95515.75;;;17.31;82.50
11268;BME280;49397;47.474;9.416;2023-07-13T01:49:06;95511.94;;;17.32;84.12
11268;BME280;49397;47.474;9.416;2023-07-13T01:51:31;95509.56;;;17.30;85.36
11268;BME280;49397;47.474;9.416;2023-07-13T01:53:56;95504.44;;;17.25;86.44
11268;BME280;49397;47.474;9.416;2023-07-13T01:56:22;95513.75;;;17.28;87.28
11268;BME280;49397;47.474;9.416;2023-07-13T01:58:47;95510.94;;;17.24;87.92
11268;BME280;49397;47.474;9.416;2023-07-13T02:01:13;95515.03;;;17.18;88.57
11268;BME280;49397;47.474;9.416;2023-07-13T02:03:39;95505.72;;;17.16;88.09
11268;BME280;49397;47.474;9.416;2023-07-13T02:06:04;95492.03;;;17.09;87.88
11268;BME280;49397;47.474;9.416;2023-07-13T02:08:32;95492.44;;;17.11;87.61
11268;BME280;49397;47.474;9.416;2023-07-13T02:10:57;95497.53;;;17.12;86.65
11268;BME280;49397;47.474;9.416;2023-07-13T02:13:22;95498.91;;;17.06;87.96
11268;BME280;49397;47.474;9.416;2023-07-13T02:15:50;95498.13;;;17.06;88.46
11268;BME280;49397;47.474;9.416;2023-07-13T02:18:16;95506.13;;;17.02;89.06
11268;BME280;49397;47.474;9.416;2023-07-13T02:20:42;95512.53;;;16.98;89.52
11268;BME280;49397;47.474;9.416;2023-07-13T02:23:08;95518.56;;;16.91;88.72
11268;BME280;49397;47.474;9.416;2023-07-13T02:25:33;95515.47;;;16.77;89.01
11268;BME280;49397;47.474;9.416;2023-07-13T02:27:58;95524.50;;;16.57;89.74
11268;BME280;49397;47.474;9.416;2023-07-13T02:30:24;95528.53;;;16.51;89.20
11268;BME280;49397;47.474;9.416;2023-07-13T02:32:50;95536.09;;;16.45;89.68
11268;BME280;49397;47.474;9.416;2023-07-13T02:35:16;95537.44;;;16.51;88.48
11268;BME280;49397;47.474;9.416;2023-07-13T02:37:41;95545.41;;;16.48;89.14
11268;BME280;49397;47.474;9.416;2023-07-13T02:40:07;95537.00;;;16.49;88.77
11268;BME280;49397;47.474;9.416;2023-07-13T02:42:34;95532.16;;;16.55;88.59
11268;BME280;49397;47.474;9.416;2023-07-13T02:44:59;95535.16;;;16.53;91.54
11268;BME280;49397;47.474;9.416;2023-07-13T02:47:25;95538.00;;;16.57;90.42
11268;BME280;49397;47.474;9.416;2023-07-13T02:49:52;95536.53;;;16.59;90.21
11268;BME280;49397;47.474;9.416;2023-07-13T02:52:17;95525.16;;;16.66;90.02
11268;BME280;49397;47.474;9.416;2023-07-13T02:54:43;95524.94;;;16.71;89.45
11268;BME280;49397;47.474;9.416;2023-07-13T02:57:08;95529.31;;;16.63;88.43
11268;BME280;49397;47.474;9.416;2023-07-13T02:59:33;95534.72;;;16.63;88.47
11268;BME280;49397;47.474;9.416;2023-07-13T03:02:01;95533.50;;;16.49;89.68
11268;BME280;49397;47.474;9.416;2023-07-13T03:04:26;95541.72;;;16.52;90.22
11268;BME280;49397;47.474;9.416;2023-07-13T03:06:51;95538.78;;;16.57;89.69
11268;BME280;49397;47.474;9.416;2023-07-13T03:09:17;95534.50;;;16.56;89.74
11268;BME280;49397;47.474;9.416;2023-07-13T03:11:42;95541.16;;;16.59;89.41
11268;BME280;49397;47.474;9.416;2023-07-13T03:14:08;95532.56;;;16.69;88.41
11268;BME280;49397;47.474;9.416;2023-07-13T03:16:33;95524.81;;;16.67;88.79
11268;BME280;49397;47.474;9.416;2023-07-13T03:18:59;95539.44;;;16.66;88.79
11268;BME280;49397;47.474;9.416;2023-07-13T03:21:24;95542.81;;;16.63;89.61
11268;BME280;49397;47.474;9.416;2023-07-13T03:23:49;95545.50;;;16.63;89.07
11268;BME280;49397;47.474;9.416;2023-07-13T03:26:18;95537.09;;;16.65;90.49
11268;BME280;49397;47.474;9.416;2023-07-13T03:28:44;95542.50;;;16.65;90.91
11268;BME280;49397;47.474;9.416;2023-07-13T03:31:14;95551.38;;;16.65;89.83
11268;BME280;49397;47.474;9.416;2023-07-13T03:33:41;95553.38;;;16.68;88.77
11268;BME280;49397;47.474;9.416;2023-07-13T03:36:09;95548.84;;;16.72;88.21
11268;BME280;49397;47.474;9.416;2023-07-13T03:38:35;95547.06;;;16.76;88.65
11268;BME280;49397;47.474;9.416;2023-07-13T03:41:00;95552.44;;;16.76;88.23
11268;BME280;49397;47.474;9.416;2023-07-13T03:43:26;95555.16;;;16.76;87.86
11268;BME280;49397;47.474;9.416;2023-07-13T03:45:51;95549.84;;;16.80;87.40
11268;BME280;49397;47.474;9.416;2023-07-13T03:48:17;95552.56;;;16.80;87.45
11268;BME280;49397;47.474;9.416;2023-07-13T03:50:42;95563.34;;;16.80;88.86
11268;BME280;49397;47.474;9.416;2023-07-13T03:53:08;95553.56;;;16.75;88.15
11268;BME280;49397;47.474;9.416;2023-07-13T03:55:33;95555.94;;;16.77;88.13
11268;BME280;49397;47.474;9.416;2023-07-13T03:58:01;95554.72;;;16.74;88.47
11268;BME280;49397;47.474;9.416;2023-07-13T04:00:45;95560.22;;;16.66;88.51
11268;BME280;49397;47.474;9.416;2023-07-13T04:03:10;95567.78;;;16.60;89.44
11268;BME280;49397;47.474;9.416;2023-07-13T04:05:36;95564.50;;;16.67;89.88
11268;BME280;49397;47.474;9.416;2023-07-13T04:08:01;95559.22;;;16.70;90.10
11268;BME280;49397;47.474;9.416;2023-07-13T04:10:26;95559.75;;;16.76;90.73
11268;BME280;49397;47.474;9.416;2023-07-13T04:12:52;95561.19;;;16.85;90.76
11268;BME280;49397;47.474;9.416;2023-07-13T04:15:17;95557.81;;;16.88;91.70
11268;BME280;49397;47.474;9.416;2023-07-13T04:17:42;95562.50;;;16.91;91.21
11268;BME280;49397;47.474;9.416;2023-07-13T04:20:08;95563.31;;;16.92;90.24
11268;BME280;49397;47.474;9.416;2023-07-13T04:22:33;95573.41;;;16.95;91.30
11268;BME280;49397;47.474;9.416;2023-07-13T04:24:59;95570.03;;;16.98;90.68
11268;BME280;49397;47.474;9.416;2023-07-13T04:27:24;95566.31;;;17.03;90.93
11268;BME280;49397;47.474;9.416;2023-07-13T04:29:49;95565.09;;;17.00;90.15
11268;BME280;49397;47.474;9.416;2023-07-13T04:32:15;95562.38;;;17.00;90.21
11268;BME280;49397;47.474;9.416;2023-07-13T04:34:40;95571.94;;;16.98;90.81
11268;BME280;49397;47.474;9.416;2023-07-13T04:37:05;95569.69;;;17.00;90.55
11268;BME280;49397;47.474;9.416;2023-07-13T04:39:31;95576.16;;;17.11;89.69
11268;BME280;49397;47.474;9.416;2023-07-13T04:41:56;95577.81;;;17.00;89.94
11268;BME280;49397;47.474;9.416;2023-07-13T04:44:21;95592.22;;;16.91;89.72
11268;BME280;49397;47.474;9.416;2023-07-13T04:46:47;95585.47;;;16.85;90.51
11268;BME280;49397;47.474;9.416;2023-07-13T04:49:12;95583.25;;;16.87;90.30
11268;BME280;49397;47.474;9.416;2023-07-13T04:51:37;95590.75;;;16.94;90.04
11268;BME280;49397;47.474;9.416;2023-07-13T04:54:04;95590.88;;;16.85;91.18
11268;BME280;49397;47.474;9.416;2023-07-13T04:56:30;95596.19;;;16.82;91.83
11268;BME280;49397;47.474;9.416;2023-07-13T04:58:55;95593.03;;;16.80;91.83
11268;BME280;49397;47.474;9.416;2023-07-13T05:01:21;95590.78;;;16.82;92.00
11268;BME280;49397;47.474;9.416;2023-07-13T05:03:46;95591.25;;;16.84;92.16
11268;BME280;49397;47.474;9.416;2023-07-13T05:06:12;95591.66;;;16.86;92.31
11268;BME280;49397;47.474;9.416;2023-07-13T05:08:39;95597.88;;;16.86;92.31
11268;BME280;49397;47.474;9.416;2023-07-13T05:11:05;95603.69;;;16.88;92.02
11268;BME280;49397;47.474;9.416;2023-07-13T05:13:30;95604.84;;;16.87;92.54
11268;BME280;49397;47.474;9.416;2023-07-13T05:16:02;95600.88;;;16.85;92.39
11268;BME280;49397;47.474;9.416;2023-07-13T05:18:28;95598.94;;;16.98;92.94
11268;BME280;49397;47.474;9.416;2023-07-13T05:21:08;95607.28;;;16.92;91.72
11268;BME280;49397;47.474;9.416;2023-07-13T05:23:35;95608.19;;;16.97;90.74
11268;BME280;49397;47.474;9.416;2023-07-13T05:26:01;95608.09;;;16.93;90.63
11268;BME280;49397;47.474;9.416;2023-07-13T05:28:28;95611.91;;;16.92;90.73
11268;BME280;49397;47.474;9.416;2023-07-13T05:30:53;95617.28;;;16.92;90.96
11268;BME280;49397;47.474;9.416;2023-07-13T05:33:19;95619.88;;;16.88;91.77
11268;BME280;49397;47.474;9.416;2023-07-13T05:35:45;95617.09;;;16.85;92.25
11268;BME280;49397;47.474;9.416;2023-07-13T05:38:10;95628.09;;;16.92;90.19
11268;BME280;49397;47.474;9.416;2023-07-13T05:40:36;95624.38;;;16.97;90.46
11268;BME280;49397;47.474;9.416;2023-07-13T05:43:01;95624.50;;;17.00;90.15
11268;BME280;49397;47.474;9.416;2023-07-13T05:45:26;95624.13;;;17.02;89.80
11268;BME280;49397;47.474;9.416;2023-07-13T05:47:52;95633.38;;;17.01;89.30
11268;BME280;49397;47.474;9.416;2023-07-13T05:50:18;95632.47;;;16.97;89.99
11268;BME280;49397;47.474;9.416;2023-07-13T05:52:43;95637.88;;;16.97;90.97
11268;BME280;49397;47.474;9.416;2023-07-13T05:55:09;95643.28;;;16.97;90.80
11268;BME280;49397;47.474;9.416;2023-07-13T05:57:34;95642.50;;;16.96;90.79
11268;BME280;49397;47.474;9.416;2023-07-13T06:00:00;95649.34;;;17.06;91.52
11268;BME280;49397;47.474;9.416;2023-07-13T06:02:25;95647.16;;;17.11;91.34
11268;BME280;49397;47.474;9.416;2023-07-13T06:04:51;95653.03;;;17.13;90.72
11268;BME280;49397;47.474;9.416;2023-07-13T06:07:17;95658.22;;;17.06;91.23
11268;BME280;49397;47.474;9.416;2023-07-13T06:09:42;95659.66;;;17.16;90.66
11268;BME280;49397;47.474;9.416;2023-07-13T06:12:08;95666.59;;;17.17;91.07
11268;BME280;49397;47.474;9.416;2023-07-13T06:14:33;95665.16;;;17.19;91.95
11268;BME280;49397;47.474;9.416;2023-07-13T06:16:58;95673.06;;;17.12;91.38
11268;BME280;49397;47.474;9.416;2023-07-13T06:19:24;95665.63;;;17.09;92.61
11268;BME280;49397;47.474;9.416;2023-07-13T06:21:49;95656.16;;;17.15;92.75
11268;BME280;49397;47.474;9.416;2023-07-13T06:24:14;95657.94;;;17.23;92.95
11268;BME280;49397;47.474;9.416;2023-07-13T06:26:40;95654.69;;;17.18;91.39
11268;BME280;49397;47.474;9.416;2023-07-13T06:29:05;95660.19;;;17.21;91.73
11268;BME280;49397;47.474;9.416;2023-07-13T06:31:31;95664.22;;;17.27;91.17
11268;BME280;49397;47.474;9.416;2023-07-13T06:33:56;95662.53;;;17.35;90.25
11268;BME280;49397;47.474;9.416;2023-07-13T06:36:21;95680.22;;;17.32;89.47
11268;BME280;49397;47.474;9.416;2023-07-13T06:38:47;95677.50;;;17.32;89.73
11268;BME280;49397;47.474;9.416;2023-07-13T06:41:12;95681.75;;;17.33;90.51
11268;BME280;49397;47.474;9.416;2023-07-13T06:43:37;95680.88;;;17.29;91.50
11268;BME280;49397;47.474;9.416;2023-07-13T06:46:03;95688.00;;;17.22;91.71
11268;BME280;49397;47.474;9.416;2023-07-13T06:48:28;95677.53;;;17.20;91.27
11268;BME280;49397;47.474;9.416;2023-07-13T06:50:54;95684.66;;;17.13;92.56
11268;BME280;49397;47.474;9.416;2023-07-13T06:53:21;95694.09;;;17.19;94.15
11268;BME280;49397;47.474;9.416;2023-07-13T06:55:47;95688.63;;;17.31;94.49
11268;BME280;49397;47.474;9.416;2023-07-13T06:58:19;95691.00;;;17.32;92.94
11268;BME280;49397;47.474;9.416;2023-07-13T07:00:44;95687.28;;;17.37;92.45
11268;BME280;49397;47.474;9.416;2023-07-13T07:03:10;95697.28;;;17.36;92.27
11268;BME280;49397;47.474;9.416;2023-07-13T07:05:36;95696.06;;;17.34;92.94
11268;BME280;49397;47.474;9.416;2023-07-13T07:08:02;95706.53;;;17.23;93.82
11268;BME280;49397;47.474;9.416;2023-07-13T07:10:29;95704.16;;;17.34;94.62
11268;BME280;49397;47.474;9.416;2023-07-13T07:12:55;95695.59;;;17.44;94.72
11268;BME280;49397;47.474;9.416;2023-07-13T07:15:20;95712.56;;;17.57;94.11
11268;BME280;49397;47.474;9.416;2023-07-13T07:17:46;95721.66;;;17.52;93.20
11268;BME280;49397;47.474;9.416;2023-07-13T07:20:11;95712.44;;;17.53;93.01
11268;BME280;49397;47.474;9.416;2023-07-13T07:22:37;95712.31;;;17.62;93.87
11268;BME280;49397;47.474;9.416;2023-07-13T07:25:02;95715.47;;;17.64;92.34
11268;BME280;49397;47.474;9.416;2023-07-13T07:27:28;95712.78;;;17.52;92.17
11268;BME280;49397;47.474;9.416;2023-07-13T07:29:54;95722.59;;;17.56;90.34
11268;BME280;49397;47.474;9.416;2023-07-13T07:32:19;95714.91;;;17.58;89.32
11268;BME280;49397;47.474;9.416;2023-07-13T07:34:45;95723.13;;;17.62;89.80
11268;BME280;49397;47.474;9.416;2023-07-13T07:37:12;95731.34;;;17.65;90.03
11268;BME280;49397;47.474;9.416;2023-07-13T07:39:38;95722.25;;;17.58;90.67
11268;BME280;49397;47.474;9.416;2023-07-13T07:42:04;95722.09;;;17.66;91.12
11268;BME280;49397;47.474;9.416;2023-07-13T07:44:31;95734.44;;;17.79;91.10
11268;BME280;49397;47.474;9.416;2023-07-13T07:46:56;95732.63;;;17.83;90.62
11268;BME280;49397;47.474;9.416;2023-07-13T07:49:22;95723.75;;;17.98;89.38
11268;BME280;49397;47.474;9.416;2023-07-13T07:51:47;95716.78;;;17.97;87.49
11268;BME280;49397;47.474;9.416;2023-07-13T07:54:13;95717.13;;;17.96;87.53
11268;BME280;49397;47.474;9.416;2023-07-13T07:56:38;95723.94;;;18.06;87.84
11268;BME280;49397;47.474;9.416;2023-07-13T07:59:03;95718.00;;;18.16;88.80
11268;BME280;49397;47.474;9.416;2023-07-13T08:01:29;95723.97;;;18.21;86.63
11268;BME280;49397;47.474;9.416;2023-07-13T08:03:54;95720.72;;;18.16;86.34
11268;BME280;49397;47.474;9.416;2023-07-13T08:06:20;95728.22;;;18.22;85.88
11268;BME280;49397;47.474;9.416;2023-07-13T08:08:47;95727.38;;;18.34;85.86
11268;BME280;49397;47.474;9.416;2023-07-13T08:11:12;95719.19;;;18.62;85.35
11268;BME280;49397;47.474;9.416;2023-07-13T08:13:38;95729.34;;;19.15;84.75
11268;BME280;49397;47.474;9.416;2023-07-13T08:16:05;95727.94;;;19.75;83.07
11268;BME280;49397;47.474;9.416;2023-07-13T08:18:31;95724.13;;;19.99;79.70
11268;BME280;49397;47.474;9.416;2023-07-13T08:20:56;95715.47;;;20.13;80.37
11268;BME280;49397;47.474;9.416;2023-07-13T08:23:22;95721.22;;;19.88;80.83
11268;BME280;49397;47.474;9.416;2023-07-13T08:25:54;95721.81;;;19.78;78.72
11268;BME280;49397;47.474;9.416;2023-07-13T08:28:23;95730.00;;;19.63;76.12
11268;BME280;49397;47.474;9.416;2023-07-13T08:30:48;95728.00;;;19.60;78.42
11268;BME280;49397;47.474;9.416;2023-07-13T08:33:18;95723.84;;;19.46;75.33
11268;BME280;49397;47.474;9.416;2023-07-13T08:35:48;95719.94;;;19.44;75.25
11268;BME280;49397;47.474;9.416;2023-07-13T08:38:14;95713.47;;;19.68;77.82
11268;BME280;49397;47.474;9.416;2023-07-13T08:40:40;95734.47;;;20.13;75.18
11268;BME280;49397;47.474;9.416;2023-07-13T08:43:09;95719.81;;;20.17;74.61
11268;BME280;49397;47.474;9.416;2023-07-13T08:45:46;95730.59;;;20.14;72.76
11268;BME280;49397;47.474;9.416;2023-07-13T08:48:26;95723.31;;;20.18;70.62
11268;BME280;49397;47.474;9.416;2023-07-13T08:51:00;95729.31;;;20.07;70.41
11268;BME280;49397;47.474;9.416;2023-07-13T08:53:36;95732.19;;;19.95;73.07
11268;BME280;49397;47.474;9.416;2023-07-13T08:56:05;95744.91;;;19.91;75.51
11268;BME280;49397;47.474;9.416;2023-07-13T08:58:36;95729.44;;;19.73;71.86
11268;BME280;49397;47.474;9.416;2023-07-13T09:03:45;95741.28;;;19.84;74.41
11268;BME280;49397;47.474;9.416;2023-07-13T09:06:14;95731.41;;;19.95;74.96
11268;BME280;49397;47.474;9.416;2023-07-13T09:08:57;95745.91;;;20.02;76.45
11268;BME280;49397;47.474;9.416;2023-07-13T09:11:36;95742.78;;;19.81;77.97
11268;BME280;49397;47.474;9.416;2023-07-13T09:14:48;95735.16;;;19.87;76.12
11268;BME280;49397;47.474;9.416;2023-07-13T09:17:22;95720.19;;;20.16;76.35
11268;BME280;49397;47.474;9.416;2023-07-13T09:19:54;95725.25;;;20.17;76.69
11268;BME280;49397;47.474;9.416;2023-07-13T09:22:23;95744.06;;;20.06;76.09
11268;BME280;49397;47.474;9.416;2023-07-13T09:24:58;95741.91;;;19.96;77.29
11268;BME280;49397;47.474;9.416;2023-07-13T09:27:30;95740.09;;;19.81;77.38
11268;BME280;49397;47.474;9.416;2023-07-13T09:30:04;95752.06;;;19.80;78.96
11268;BME280;49397;47.474;9.416;2023-07-13T09:32:43;95749.78;;;19.82;78.17
11268;BME280;49397;47.474;9.416;2023-07-13T09:35:15;95745.50;;;19.81;78.88
11268;BME280;49397;47.474;9.416;2023-07-13T09:37:43;95745.28;;;19.90;77.19
11268;BME280;49397;47.474;9.416;2023-07-13T09:40:17;95753.03;;;19.72;73.60
11268;BME280;49397;47.474;9.416;2023-07-13T09:42:46;95754.56;;;19.89;76.24
11268;BME280;49397;47.474;9.416;2023-07-13T09:45:17;95752.06;;;19.99;74.42
11268;BME280;49397;47.474;9.416;2023-07-13T09:48:19;95749.91;;;20.08;74.92
11268;BME280;49397;47.474;9.416;2023-07-13T09:50:45;95750.03;;;20.35;74.88
11268;BME280;49397;47.474;9.416;2023-07-13T09:53:15;95758.84;;;20.51;70.86
11268;BME280;49397;47.474;9.416;2023-07-13T09:55:42;95758.97;;;20.58;71.70
11268;BME280;49397;47.474;9.416;2023-07-13T09:58:20;95754.81;;;20.64;72.44
11268;BME280;49397;47.474;9.416;2023-07-13T10:00:56;95756.34;;;20.42;70.41
11268;BME280;49397;47.474;9.416;2023-07-13T10:03:25;95743.44;;;20.58;71.77
11268;BME280;49397;47.474;9.416;2023-07-13T10:05:52;95742.75;;;20.39;72.49
11268;BME280;49397;47.474;9.416;2023-07-13T10:08:29;95745.16;;;20.67;71.29
11268;BME280;49397;47.474;9.416;2023-07-13T10:11:09;95748.78;;;21.00;70.40
11268;BME280;49397;47.474;9.416;2023-07-13T10:13:37;95751.56;;;21.27;67.18
11268;BME280;49397;47.474;9.416;2023-07-13T10:16:06;95758.06;;;20.96;65.37
11268;BME280;49397;47.474;9.416;2023-07-13T10:18:55;95746.47;;;21.25;63.86
11268;BME280;49397;47.474;9.416;2023-07-13T10:21:27;95744.19;;;21.87;66.63
11268;BME280;49397;47.474;9.416;2023-07-13T10:24:04;95744.22;;;22.20;64.19
11268;BME280;49397;47.474;9.416;2023-07-13T10:26:32;95745.31;;;22.15;64.94
11268;BME280;49397;47.474;9.416;2023-07-13T10:29:04;95751.94;;;21.55;65.93
11268;BME280;49397;47.474;9.416;2023-07-13T10:31:34;95757.56;;;21.13;66.51
11268;BME280;49397;47.474;9.416;2023-07-13T10:34:02;95754.03;;;21.39;66.04
11268;BME280;49397;47.474;9.416;2023-07-13T10:36:33;95761.78;;;21.37;67.08
11268;BME280;49397;47.474;9.416;2023-07-13T10:39:02;95762.06;;;21.28;66.50
11268;BME280;49397;47.474;9.416;2023-07-13T10:41:32;95763.03;;;21.17;66.84
11268;BME280;49397;47.474;9.416;2023-07-13T10:43:59;95772.84;;;20.98;69.70
11268;BME280;49397;47.474;9.416;2023-07-13T10:46:27;95771.25;;;20.97;68.83
11268;BME280;49397;47.474;9.416;2023-07-13T10:49:02;95770.31;;;21.09;70.16
11268;BME280;49397;47.474;9.416;2023-07-13T10:51:30;95762.47;;;21.30;69.50
11268;BME280;49397;47.474;9.416;2023-07-13T10:56:40;95770.94;;;21.51;68.22
11268;BME280;49397;47.474;9.416;2023-07-13T10:59:10;95768.88;;;21.45;66.15
11268;BME280;49397;47.474;9.416;2023-07-13T11:01:54;95772.84;;;21.51;68.67
11268;BME280;49397;47.474;9.416;2023-07-13T11:04:21;95758.41;;;21.43;69.79
11268;BME280;49397;47.474;9.416;2023-07-13T11:06:52;95756.41;;;21.14;70.67
11268;BME280;49397;47.474;9.416;2023-07-13T11:09:36;95757.78;;;21.04;72.01
11268;BME280;49397;47.474;9.416;2023-07-13T11:20:22;95766.38;;;20.38;70.14
11268;BME280;49397;47.474;9.416;2023-07-13T11:33:21;95765.13;;;20.13;74.73
11268;BME280;49397;47.474;9.416;2023-07-13T11:35:57;95758.25;;;20.19;72.25
11268;BME280;49397;47.474;9.416;2023-07-13T11:41:28;95758.66;;;20.40;72.94
11268;BME280;49397;47.474;9.416;2023-07-13T11:44:04;95758.31;;;20.42;73.48
11268;BME280;49397;47.474;9.416;2023-07-13T11:46:30;95767.38;;;20.11;70.91
11268;BME280;49397;47.474;9.416;2023-07-13T11:48:55;95764.75;;;20.15;70.45
11268;BME280;49397;47.474;9.416;2023-07-13T11:51:32;95772.63;;;20.00;74.50
11268;BME280;49397;47.474;9.416;2023-07-13T11:54:06;95772.47;;;19.93;73.07
11268;BME280;49397;47.474;9.416;2023-07-13T11:56:37;95767.19;;;20.00;72.82
11268;BME280;49397;47.474;9.416;2023-07-13T11:59:06;95761.69;;;20.16;72.51
11268;BME280;49397;47.474;9.416;2023-07-13T12:01:32;95754.97;;;20.10;71.42
11268;BME280;49397;47.474;9.416;2023-07-13T12:04:01;95755.75;;;20.30;72.27
11268;BME280;49397;47.474;9.416;2023-07-13T12:06:35;95753.88;;;20.34;71.50
11268;BME280;49397;47.474;9.416;2023-07-13T12:09:12;95759.19;;;20.27;72.15
11268;BME280;49397;47.474;9.416;2023-07-13T12:11:42;95753.63;;;20.20;73.14
11268;BME280;49397;47.474;9.416;2023-07-13T12:14:26;95760.75;;;20.08;73.52
11268;BME280;49397;47.474;9.416;2023-07-13T12:16:52;95755.50;;;19.96;76.42
11268;BME280;49397;47.474;9.416;2023-07-13T12:19:28;95759.72;;;20.17;76.11
11268;BME280;49397;47.474;9.416;2023-07-13T12:21:56;95741.75;;;20.28;73.78
11268;BME280;49397;47.474;9.416;2023-07-13T12:24:23;95745.75;;;20.56;74.48
11268;BME280;49397;47.474;9.416;2023-07-13T12:26:54;95744.63;;;20.80;71.63
11268;BME280;49397;47.474;9.416;2023-07-13T12:29:20;95743.16;;;20.86;67.74
11268;BME280;49397;47.474;9.416;2023-07-13T12:31:48;95740.00;;;21.33;67.59
11268;BME280;49397;47.474;9.416;2023-07-13T12:34:16;95734.78;;;21.51;68.81
11268;BME280;49397;47.474;9.416;2023-07-13T12:36:47;95739.41;;;21.47;65.59
11268;BME280;49397;47.474;9.416;2023-07-13T12:39:20;95732.56;;;21.30;66.18
11268;BME280;49397;47.474;9.416;2023-07-13T12:41:47;95735.25;;;21.56;64.70
11268;BME280;49397;47.474;9.416;2023-07-13T12:44:26;95731.75;;;21.56;65.78
11268;BME280;49397;47.474;9.416;2023-07-13T12:47:13;95717.97;;;21.72;64.40
11268;BME280;49397;47.474;9.416;2023-07-13T12:49:42;95723.63;;;22.23;62.19
11268;BME280;49397;47.474;9.416;2023-07-13T12:52:20;95719.31;;;22.62;62.36
11268;BME280;49397;47.474;9.416;2023-07-13T12:54:57;95721.19;;;23.60;60.07
11268;BME280;49397;47.474;9.416;2023-07-13T12:57:23;95725.66;;;24.03;59.27
11268;BME280;49397;47.474;9.416;2023-07-13T12:59:52;95726.44;;;23.25;59.10
11268;BME280;49397;47.474;9.416;2023-07-13T13:02:33;95728.78;;;22.75;59.68
11268;BME280;49397;47.474;9.416;2023-07-13T13:04:59;95723.56;;;22.59;59.22
11268;BME280;49397;47.474;9.416;2023-07-13T13:07:26;95732.19;;;22.65;61.69
11268;BME280;49397;47.474;9.416;2023-07-13T13:09:52;95728.81;;;22.79;63.16
11268;BME280;49397;47.474;9.416;2023-07-13T13:12:19;95729.34;;;22.98;61.42
11268;BME280;49397;47.474;9.416;2023-07-13T13:14:45;95723.28;;;23.91;59.37
11268;BME280;49397;47.474;9.416;2023-07-13T13:17:22;95720.59;;;24.02;56.08
11268;BME280;49397;47.474;9.416;2023-07-13T13:19:52;95723.59;;;23.72;60.14
11268;BME280;49397;47.474;9.416;2023-07-13T13:22:21;95717.78;;;23.84;59.89
11268;BME280;49397;47.474;9.416;2023-07-13T13:24:46;95719.94;;;24.37;57.83
11268;BME280;49397;47.474;9.416;2023-07-13T13:27:20;95714.06;;;24.45;58.79
11268;BME280;49397;47.474;9.416;2023-07-13T13:29:46;95712.91;;;24.43;58.31
11268;BME280;49397;47.474;9.416;2023-07-13T13:32:13;95715.66;;;24.78;58.13
11268;BME280;49397;47.474;9.416;2023-07-13T13:34:39;95710.56;;;24.73;57.92